sensor_id;sensor_type;location;lat;lon;timestamp;temperature;humidity
74416;SHT31;62850;42.428;25.618;2022-10-22T00:01:02;8.58;70.42
74416;SHT31;62850;42.428;25.618;2022-10-22T00:03:28;8.55;70.67
74416;SHT31;62850;42.428;25.618;2022-10-22T00:05:53;8.59;70.56
74416;SHT31;62850;42.428;25.618;2022-10-22T00:08:19;8.65;70.81
74416;SHT31;62850;42.428;25.618;2022-10-22T00:10:45;8.66;70.66
74416;SHT31;62850;42.428;25.618;2022-10-22T00:13:10;8.68;70.46
74416;SHT31;62850;42.428;25.618;2022-10-22T00:15:36;8.56;70.36
74416;SHT31;62850;42.428;25.618;2022-10-22T00:18:02;8.58;70.56
74416;SHT31;62850;42.428;25.618;2022-10-22T00:20:27;8.55;70.54
74416;SHT31;62850;42.428;25.618;2022-10-22T00:22:53;8.52;70.52
74416;SHT31;62850;42.428;25.618;2022-10-22T00:25:18;8.59;70.98
74416;SHT31;62850;42.428;25.618;2022-10-22T00:27:44;8.56;70.20
74416;SHT31;62850;42.428;25.618;2022-10-22T00:30:10;8.55;70.25
74416;SHT31;62850;42.428;25.618;2022-10-22T00:32:36;8.46;70.83
74416;SHT31;62850;42.428;25.618;2022-10-22T00:35:02;8.52;70.85
74416;SHT31;62850;42.428;25.618;2022-10-22T00:37:27;8.49;70.90
74416;SHT31;62850;42.428;25.618;2022-10-22T00:39:54;8.53;70.68
74416;SHT31;62850;42.428;25.618;2022-10-22T00:42:22;8.51;70.62
74416;SHT31;62850;42.428;25.618;2022-10-22T00:47:48;8.48;70.54
74416;SHT31;62850;42.428;25.618;2022-10-22T00:50:20;8.45;70.76
74416;SHT31;62850;42.428;25.618;2022-10-22T00:52:46;8.49;70.71
74416;SHT31;62850;42.428;25.618;2022-10-22T00:55:13;8.49;70.78
74416;SHT31;62850;42.428;25.618;2022-10-22T00:57:39;8.55;70.49
74416;SHT31;62850;42.428;25.618;2022-10-22T01:00:05;8.59;70.36
74416;SHT31;62850;42.428;25.618;2022-10-22T01:02:31;8.68;70.25
74416;SHT31;62850;42.428;25.618;2022-10-22T01:04:57;8.65;69.98
74416;SHT31;62850;42.428;25.618;2022-10-22T01:07:23;8.63;70.02
74416;SHT31;62850;42.428;25.618;2022-10-22T01:21:29;8.49;69.98
74416;SHT31;62850;42.428;25.618;2022-10-22T01:24:14;8.45;70.46
74416;SHT31;62850;42.428;25.618;2022-10-22T01:29:50;8.42;70.40
74416;SHT31;62850;42.428;25.618;2022-10-22T01:32:20;8.48;70.40
74416;SHT31;62850;42.428;25.618;2022-10-22T01:34:50;8.44;70.43
74416;SHT31;62850;42.428;25.618;2022-10-22T01:37:20;8.39;70.60
74416;SHT31;62850;42.428;25.618;2022-10-22T01:39:47;8.37;70.48
74416;SHT31;62850;42.428;25.618;2022-10-22T01:42:13;8.32;70.74
74416;SHT31;62850;42.428;25.618;2022-10-22T01:44:39;8.34;70.58
74416;SHT31;62850;42.428;25.618;2022-10-22T01:47:59;8.32;70.98
74416;SHT31;62850;42.428;25.618;2022-10-22T01:58:21;8.35;70.86
74416;SHT31;62850;42.428;25.618;2022-10-22T02:01:02;8.27;71.11
74416;SHT31;62850;42.428;25.618;2022-10-22T02:03:47;8.31;70.90
74416;SHT31;62850;42.428;25.618;2022-10-22T02:06:18;8.38;70.88
74416;SHT31;62850;42.428;25.618;2022-10-22T02:08:45;8.35;70.80
74416;SHT31;62850;42.428;25.618;2022-10-22T02:11:13;8.30;71.07
74416;SHT31;62850;42.428;25.618;2022-10-22T02:13:43;8.28;71.18
74416;SHT31;62850;42.428;25.618;2022-10-22T02:16:17;8.32;71.25
74416;SHT31;62850;42.428;25.618;2022-10-22T02:18:46;8.30;71.43
74416;SHT31;62850;42.428;25.618;2022-10-22T02:21:14;8.34;71.39
74416;SHT31;62850;42.428;25.618;2022-10-22T02:23:40;8.39;70.99
74416;SHT31;62850;42.428;25.618;2022-10-22T02:26:12;8.41;70.93
74416;SHT31;62850;42.428;25.618;2022-10-22T02:28:48;8.37;71.06
74416;SHT31;62850;42.428;25.618;2022-10-22T02:31:30;8.34;71.08
74416;SHT31;62850;42.428;25.618;2022-10-22T02:34:00;8.30;71.30
74416;SHT31;62850;42.428;25.618;2022-10-22T02:36:29;8.30;71.45
74416;SHT31;62850;42.428;25.618;2022-10-22T02:38:55;8.28;71.55
74416;SHT31;62850;42.428;25.618;2022-10-22T02:41:21;8.31;71.27
74416;SHT31;62850;42.428;25.618;2022-10-22T02:43:50;8.32;70.96
74416;SHT31;62850;42.428;25.618;2022-10-22T02:46:17;8.30;70.96
74416;SHT31;62850;42.428;25.618;2022-10-22T02:48:43;8.25;71.63
74416;SHT31;62850;42.428;25.618;2022-10-22T02:51:09;8.28;71.37
74416;SHT31;62850;42.428;25.618;2022-10-22T02:53:34;8.21;71.45
74416;SHT31;62850;42.428;25.618;2022-10-22T02:55:59;8.25;71.43
74416;SHT31;62850;42.428;25.618;2022-10-22T02:58:25;8.20;71.43
74416;SHT31;62850;42.428;25.618;2022-10-22T03:00:51;8.15;71.38
74416;SHT31;62850;42.428;25.618;2022-10-22T03:03:16;8.12;71.75
74416;SHT31;62850;42.428;25.618;2022-10-22T03:05:41;8.11;72.11
74416;SHT31;62850;42.428;25.618;2022-10-22T03:08:07;8.01;71.85
74416;SHT31;62850;42.428;25.618;2022-10-22T03:10:32;8.10;71.91
74416;SHT31;62850;42.428;25.618;2022-10-22T03:12:58;8.10;71.79
74416;SHT31;62850;42.428;25.618;2022-10-22T03:15:24;8.14;71.70
74416;SHT31;62850;42.428;25.618;2022-10-22T03:17:49;8.12;71.84
74416;SHT31;62850;42.428;25.618;2022-10-22T03:20:15;8.17;71.77
74416;SHT31;62850;42.428;25.618;2022-10-22T03:22:41;8.14;71.58
74416;SHT31;62850;42.428;25.618;2022-10-22T03:25:13;8.18;71.34
74416;SHT31;62850;42.428;25.618;2022-10-22T03:27:41;8.14;71.48
74416;SHT31;62850;42.428;25.618;2022-10-22T03:30:09;8.15;71.03
74416;SHT31;62850;42.428;25.618;2022-10-22T03:32:35;8.10;71.14
74416;SHT31;62850;42.428;25.618;2022-10-22T03:35:01;8.08;71.27
74416;SHT31;62850;42.428;25.618;2022-10-22T03:37:26;8.12;71.19
74416;SHT31;62850;42.428;25.618;2022-10-22T03:39:53;8.11;70.95
74416;SHT31;62850;42.428;25.618;2022-10-22T03:42:20;8.07;71.18
74416;SHT31;62850;42.428;25.618;2022-10-22T03:44:46;8.01;71.32
74416;SHT31;62850;42.428;25.618;2022-10-22T03:47:12;7.93;71.50
74416;SHT31;62850;42.428;25.618;2022-10-22T03:49:37;7.91;71.65
74416;SHT31;62850;42.428;25.618;2022-10-22T03:52:11;7.90;71.51
74416;SHT31;62850;42.428;25.618;2022-10-22T03:54:37;7.95;71.81
74416;SHT31;62850;42.428;25.618;2022-10-22T03:57:04;7.90;72.00
74416;SHT31;62850;42.428;25.618;2022-10-22T03:59:49;7.91;71.79
74416;SHT31;62850;42.428;25.618;2022-10-22T04:02:15;7.94;71.70
74416;SHT31;62850;42.428;25.618;2022-10-22T04:04:41;7.87;71.65
74416;SHT31;62850;42.428;25.618;2022-10-22T04:07:06;7.83;71.71
74416;SHT31;62850;42.428;25.618;2022-10-22T04:09:33;7.87;72.01
74416;SHT31;62850;42.428;25.618;2022-10-22T04:11:58;7.81;71.91
74416;SHT31;62850;42.428;25.618;2022-10-22T04:14:24;7.77;71.95
74416;SHT31;62850;42.428;25.618;2022-10-22T04:16:50;7.73;71.97
74416;SHT31;62850;42.428;25.618;2022-10-22T04:19:15;7.70;72.37
74416;SHT31;62850;42.428;25.618;2022-10-22T04:21:41;7.69;72.57
74416;SHT31;62850;42.428;25.618;2022-10-22T04:24:07;7.73;72.69
74416;SHT31;62850;42.428;25.618;2022-10-22T04:26:32;7.76;72.70
74416;SHT31;62850;42.428;25.618;2022-10-22T04:28:58;7.70;72.67
74416;SHT31;62850;42.428;25.618;2022-10-22T04:31:24;7.74;72.68
74416;SHT31;62850;42.428;25.618;2022-10-22T04:33:55;7.76;72.33
74416;SHT31;62850;42.428;25.618;2022-10-22T04:36:21;7.81;72.20
74416;SHT31;62850;42.428;25.618;2022-10-22T04:38:55;7.74;72.32
74416;SHT31;62850;42.428;25.618;2022-10-22T04:41:24;7.74;72.45
74416;SHT31;62850;42.428;25.618;2022-10-22T04:43:52;7.77;72.28
74416;SHT31;62850;42.428;25.618;2022-10-22T04:46:19;7.77;72.53
74416;SHT31;62850;42.428;25.618;2022-10-22T04:48:45;7.79;72.55
74416;SHT31;62850;42.428;25.618;2022-10-22T04:51:13;7.79;72.66
74416;SHT31;62850;42.428;25.618;2022-10-22T04:53:39;7.83;72.42
74416;SHT31;62850;42.428;25.618;2022-10-22T04:56:10;7.84;72.35
74416;SHT31;62850;42.428;25.618;2022-10-22T04:58:36;7.87;72.37
74416;SHT31;62850;42.428;25.618;2022-10-22T05:03:47;7.90;72.50
74416;SHT31;62850;42.428;25.618;2022-10-22T05:06:13;7.89;72.40
74416;SHT31;62850;42.428;25.618;2022-10-22T05:08:39;7.90;72.53
74416;SHT31;62850;42.428;25.618;2022-10-22T05:11:18;7.97;72.36
74416;SHT31;62850;42.428;25.618;2022-10-22T05:13:45;8.05;72.18
74416;SHT31;62850;42.428;25.618;2022-10-22T05:16:11;8.04;72.14
74416;SHT31;62850;42.428;25.618;2022-10-22T05:18:37;8.05;72.03
74416;SHT31;62850;42.428;25.618;2022-10-22T05:21:08;8.08;72.48
74416;SHT31;62850;42.428;25.618;2022-10-22T05:23:34;8.17;72.21
74416;SHT31;62850;42.428;25.618;2022-10-22T05:26:04;8.24;71.92
74416;SHT31;62850;42.428;25.618;2022-10-22T05:28:30;8.28;72.03
74416;SHT31;62850;42.428;25.618;2022-10-22T05:30:57;8.32;71.86
74416;SHT31;62850;42.428;25.618;2022-10-22T05:33:23;8.39;72.11
74416;SHT31;62850;42.428;25.618;2022-10-22T05:35:50;8.44;72.05
74416;SHT31;62850;42.428;25.618;2022-10-22T05:38:16;8.42;72.25
74416;SHT31;62850;42.428;25.618;2022-10-22T05:40:42;8.51;72.21
74416;SHT31;62850;42.428;25.618;2022-10-22T05:43:07;8.59;71.94
74416;SHT31;62850;42.428;25.618;2022-10-22T05:45:40;8.66;72.19
74416;SHT31;62850;42.428;25.618;2022-10-22T05:48:07;8.70;72.42
74416;SHT31;62850;42.428;25.618;2022-10-22T05:50:37;8.84;71.97
74416;SHT31;62850;42.428;25.618;2022-10-22T05:53:05;8.93;71.55
74416;SHT31;62850;42.428;25.618;2022-10-22T05:55:35;9.10;71.00
74416;SHT31;62850;42.428;25.618;2022-10-22T05:58:02;9.23;70.30
74416;SHT31;62850;42.428;25.618;2022-10-22T06:00:28;9.40;69.67
74416;SHT31;62850;42.428;25.618;2022-10-22T06:02:53;9.45;69.26
74416;SHT31;62850;42.428;25.618;2022-10-22T06:05:19;9.61;68.93
74416;SHT31;62850;42.428;25.618;2022-10-22T06:07:45;9.67;68.85
74416;SHT31;62850;42.428;25.618;2022-10-22T06:10:16;9.72;68.64
74416;SHT31;62850;42.428;25.618;2022-10-22T06:12:42;9.74;68.20
74416;SHT31;62850;42.428;25.618;2022-10-22T06:15:11;9.81;68.24
74416;SHT31;62850;42.428;25.618;2022-10-22T06:17:37;9.93;67.25
74416;SHT31;62850;42.428;25.618;2022-10-22T06:20:03;10.00;66.69
74416;SHT31;62850;42.428;25.618;2022-10-22T06:22:28;10.13;66.19
74416;SHT31;62850;42.428;25.618;2022-10-22T06:24:54;10.14;66.16
74416;SHT31;62850;42.428;25.618;2022-10-22T06:27:19;10.20;65.71
74416;SHT31;62850;42.428;25.618;2022-10-22T06:29:44;10.24;66.25
74416;SHT31;62850;42.428;25.618;2022-10-22T06:32:10;10.36;64.67
74416;SHT31;62850;42.428;25.618;2022-10-22T06:34:35;10.46;65.07
74416;SHT31;62850;42.428;25.618;2022-10-22T06:37:01;10.44;65.51
74416;SHT31;62850;42.428;25.618;2022-10-22T06:39:26;10.43;64.89
74416;SHT31;62850;42.428;25.618;2022-10-22T06:41:52;10.51;64.52
74416;SHT31;62850;42.428;25.618;2022-10-22T06:44:18;10.60;64.15
74416;SHT31;62850;42.428;25.618;2022-10-22T06:46:44;10.69;64.20
74416;SHT31;62850;42.428;25.618;2022-10-22T06:49:13;10.72;64.83
74416;SHT31;62850;42.428;25.618;2022-10-22T06:51:39;10.79;63.84
74416;SHT31;62850;42.428;25.618;2022-10-22T06:54:05;10.84;63.87
74416;SHT31;62850;42.428;25.618;2022-10-22T06:56:30;10.91;62.84
74416;SHT31;62850;42.428;25.618;2022-10-22T06:58:57;10.98;61.73
74416;SHT31;62850;42.428;25.618;2022-10-22T07:01:28;10.99;61.96
74416;SHT31;62850;42.428;25.618;2022-10-22T07:03:54;11.08;62.06
74416;SHT31;62850;42.428;25.618;2022-10-22T07:06:21;10.98;62.29
74416;SHT31;62850;42.428;25.618;2022-10-22T07:08:47;11.06;61.52
74416;SHT31;62850;42.428;25.618;2022-10-22T07:11:23;11.15;61.83
74416;SHT31;62850;42.428;25.618;2022-10-22T07:13:49;11.22;62.03
74416;SHT31;62850;42.428;25.618;2022-10-22T07:16:16;11.32;61.78
74416;SHT31;62850;42.428;25.618;2022-10-22T07:18:43;11.35;64.08
74416;SHT31;62850;42.428;25.618;2022-10-22T07:21:10;11.42;63.60
74416;SHT31;62850;42.428;25.618;2022-10-22T07:23:37;11.53;61.83
74416;SHT31;62850;42.428;25.618;2022-10-22T07:26:03;11.60;61.36
74416;SHT31;62850;42.428;25.618;2022-10-22T07:28:32;11.70;61.75
74416;SHT31;62850;42.428;25.618;2022-10-22T07:30:58;11.76;61.23
74416;SHT31;62850;42.428;25.618;2022-10-22T07:33:24;11.87;61.20
74416;SHT31;62850;42.428;25.618;2022-10-22T07:35:49;11.74;61.48
74416;SHT31;62850;42.428;25.618;2022-10-22T07:38:15;11.88;60.64
74416;SHT31;62850;42.428;25.618;2022-10-22T07:40:40;12.05;60.51
74416;SHT31;62850;42.428;25.618;2022-10-22T07:43:06;12.11;59.78
74416;SHT31;62850;42.428;25.618;2022-10-22T07:45:31;12.20;59.90
74416;SHT31;62850;42.428;25.618;2022-10-22T07:47:58;12.32;59.90
74416;SHT31;62850;42.428;25.618;2022-10-22T07:50:25;12.21;60.05
74416;SHT31;62850;42.428;25.618;2022-10-22T07:52:51;12.41;60.31
74416;SHT31;62850;42.428;25.618;2022-10-22T07:55:16;12.52;58.86
74416;SHT31;62850;42.428;25.618;2022-10-22T07:57:42;12.63;58.90
74416;SHT31;62850;42.428;25.618;2022-10-22T08:00:08;12.59;59.85
74416;SHT31;62850;42.428;25.618;2022-10-22T08:02:34;12.59;58.69
74416;SHT31;62850;42.428;25.618;2022-10-22T08:04:59;12.67;58.33
74416;SHT31;62850;42.428;25.618;2022-10-22T08:07:25;12.76;59.09
74416;SHT31;62850;42.428;25.618;2022-10-22T08:09:51;12.86;58.02
74416;SHT31;62850;42.428;25.618;2022-10-22T08:12:17;12.92;57.96
74416;SHT31;62850;42.428;25.618;2022-10-22T08:14:42;12.90;58.03
74416;SHT31;62850;42.428;25.618;2022-10-22T08:17:08;12.89;57.05
74416;SHT31;62850;42.428;25.618;2022-10-22T08:19:33;12.90;57.28
74416;SHT31;62850;42.428;25.618;2022-10-22T08:22:00;12.94;57.93
74416;SHT31;62850;42.428;25.618;2022-10-22T08:24:26;12.93;58.39
74416;SHT31;62850;42.428;25.618;2022-10-22T08:26:52;12.92;57.81
74416;SHT31;62850;42.428;25.618;2022-10-22T08:29:20;12.99;58.56
74416;SHT31;62850;42.428;25.618;2022-10-22T08:31:48;13.03;57.98
74416;SHT31;62850;42.428;25.618;2022-10-22T08:34:13;13.06;59.24
74416;SHT31;62850;42.428;25.618;2022-10-22T08:36:39;13.10;56.97
74416;SHT31;62850;42.428;25.618;2022-10-22T08:39:04;13.23;56.63
74416;SHT31;62850;42.428;25.618;2022-10-22T08:41:35;13.34;57.88
74416;SHT31;62850;42.428;25.618;2022-10-22T08:50:15;13.51;57.41
74416;SHT31;62850;42.428;25.618;2022-10-22T08:52:43;13.58;57.02
74416;SHT31;62850;42.428;25.618;2022-10-22T08:55:14;13.69;56.48
74416;SHT31;62850;42.428;25.618;2022-10-22T08:58:02;13.83;57.79
74416;SHT31;62850;42.428;25.618;2022-10-22T09:00:35;13.99;57.50
74416;SHT31;62850;42.428;25.618;2022-10-22T09:05:50;14.37;55.47
74416;SHT31;62850;42.428;25.618;2022-10-22T09:08:20;14.45;55.12
74416;SHT31;62850;42.428;25.618;2022-10-22T09:10:49;14.63;54.37
74416;SHT31;62850;42.428;25.618;2022-10-22T09:13:17;14.74;54.32
74416;SHT31;62850;42.428;25.618;2022-10-22T09:15:46;14.92;56.35
74416;SHT31;62850;42.428;25.618;2022-10-22T09:21:19;15.22;52.46
74416;SHT31;62850;42.428;25.618;2022-10-22T09:24:13;15.36;52.04
74416;SHT31;62850;42.428;25.618;2022-10-22T09:26:41;15.39;52.20
74416;SHT31;62850;42.428;25.618;2022-10-22T09:29:08;15.47;53.27
74416;SHT31;62850;42.428;25.618;2022-10-22T09:31:38;15.42;54.27
74416;SHT31;62850;42.428;25.618;2022-10-22T09:34:03;15.43;52.29
74416;SHT31;62850;42.428;25.618;2022-10-22T09:36:32;15.56;51.95
74416;SHT31;62850;42.428;25.618;2022-10-22T09:38:58;15.66;51.94
74416;SHT31;62850;42.428;25.618;2022-10-22T09:41:27;15.70;51.62
74416;SHT31;62850;42.428;25.618;2022-10-22T09:43:56;15.74;49.77
74416;SHT31;62850;42.428;25.618;2022-10-22T09:46:28;15.80;51.36
74416;SHT31;62850;42.428;25.618;2022-10-22T09:49:02;15.86;51.80
74416;SHT31;62850;42.428;25.618;2022-10-22T09:54:25;15.96;52.09
74416;SHT31;62850;42.428;25.618;2022-10-22T09:56:59;15.96;51.20
74416;SHT31;62850;42.428;25.618;2022-10-22T09:59:30;16.02;49.21
74416;SHT31;62850;42.428;25.618;2022-10-22T10:04:39;16.11;49.69
74416;SHT31;62850;42.428;25.618;2022-10-22T10:07:16;16.22;48.97
74416;SHT31;62850;42.428;25.618;2022-10-22T10:09:42;16.35;49.14
74416;SHT31;62850;42.428;25.618;2022-10-22T10:14:46;16.66;48.95
74416;SHT31;62850;42.428;25.618;2022-10-22T10:17:42;16.77;47.91
74416;SHT31;62850;42.428;25.618;2022-10-22T10:23:07;16.80;48.19
74416;SHT31;62850;42.428;25.618;2022-10-22T10:33:49;17.17;46.43
74416;SHT31;62850;42.428;25.618;2022-10-22T10:39:24;17.30;47.42
74416;SHT31;62850;42.428;25.618;2022-10-22T10:42:02;17.34;47.46
74416;SHT31;62850;42.428;25.618;2022-10-22T10:47:25;17.38;47.66
74416;SHT31;62850;42.428;25.618;2022-10-22T10:50:14;17.41;46.74
74416;SHT31;62850;42.428;25.618;2022-10-22T10:53:09;17.61;45.55
74416;SHT31;62850;42.428;25.618;2022-10-22T10:58:54;17.81;45.59
74416;SHT31;62850;42.428;25.618;2022-10-22T11:06:51;17.93;45.30
74416;SHT31;62850;42.428;25.618;2022-10-22T11:11:52;17.82;46.08
74416;SHT31;62850;42.428;25.618;2022-10-22T11:14:29;17.81;45.56
74416;SHT31;62850;42.428;25.618;2022-10-22T11:17:12;17.81;45.20
74416;SHT31;62850;42.428;25.618;2022-10-22T11:19:45;17.79;45.82
74416;SHT31;62850;42.428;25.618;2022-10-22T11:22:35;17.83;44.60
74416;SHT31;62850;42.428;25.618;2022-10-22T11:28:00;17.81;44.15
74416;SHT31;62850;42.428;25.618;2022-10-22T11:30:30;17.86;44.67
74416;SHT31;62850;42.428;25.618;2022-10-22T11:33:02;17.85;45.19
74416;SHT31;62850;42.428;25.618;2022-10-22T11:35:37;17.78;45.24
74416;SHT31;62850;42.428;25.618;2022-10-22T11:38:05;17.74;44.94
74416;SHT31;62850;42.428;25.618;2022-10-22T11:40:35;17.72;44.90
74416;SHT31;62850;42.428;25.618;2022-10-22T11:43:09;17.75;44.72
74416;SHT31;62850;42.428;25.618;2022-10-22T11:45:40;17.76;46.42
74416;SHT31;62850;42.428;25.618;2022-10-22T11:48:15;17.82;44.40
74416;SHT31;62850;42.428;25.618;2022-10-22T11:50:53;17.81;45.20
74416;SHT31;62850;42.428;25.618;2022-10-22T11:53:35;17.86;44.66
74416;SHT31;62850;42.428;25.618;2022-10-22T12:08:30;18.79;42.73
74416;SHT31;62850;42.428;25.618;2022-10-22T12:11:16;18.85;42.35
74416;SHT31;62850;42.428;25.618;2022-10-22T12:16:47;18.91;41.64
74416;SHT31;62850;42.428;25.618;2022-10-22T12:19:22;18.94;42.92
74416;SHT31;62850;42.428;25.618;2022-10-22T12:24:34;18.98;41.98
74416;SHT31;62850;42.428;25.618;2022-10-22T12:27:00;18.95;42.55
74416;SHT31;62850;42.428;25.618;2022-10-22T12:29:26;18.96;41.98
74416;SHT31;62850;42.428;25.618;2022-10-22T12:31:52;18.99;42.52
74416;SHT31;62850;42.428;25.618;2022-10-22T12:34:23;19.04;42.98
74416;SHT31;62850;42.428;25.618;2022-10-22T12:36:51;19.06;43.17
74416;SHT31;62850;42.428;25.618;2022-10-22T12:39:19;19.08;44.20
74416;SHT31;62850;42.428;25.618;2022-10-22T12:41:45;19.11;43.51
74416;SHT31;62850;42.428;25.618;2022-10-22T12:44:13;19.15;43.69
74416;SHT31;62850;42.428;25.618;2022-10-22T12:46:40;19.11;42.63
74416;SHT31;62850;42.428;25.618;2022-10-22T12:49:13;19.12;43.58
74416;SHT31;62850;42.428;25.618;2022-10-22T12:51:40;19.11;43.71
74416;SHT31;62850;42.428;25.618;2022-10-22T12:54:11;19.04;43.51
74416;SHT31;62850;42.428;25.618;2022-10-22T12:56:38;19.04;42.65
74416;SHT31;62850;42.428;25.618;2022-10-22T12:59:11;19.11;43.09
74416;SHT31;62850;42.428;25.618;2022-10-22T13:01:41;19.14;44.23
74416;SHT31;62850;42.428;25.618;2022-10-22T13:12:24;19.14;42.59
74416;SHT31;62850;42.428;25.618;2022-10-22T13:14:50;19.16;41.11
74416;SHT31;62850;42.428;25.618;2022-10-22T13:17:19;19.14;42.22
74416;SHT31;62850;42.428;25.618;2022-10-22T13:24:55;19.09;41.59
74416;SHT31;62850;42.428;25.618;2022-10-22T13:27:22;19.09;41.70
74416;SHT31;62850;42.428;25.618;2022-10-22T13:29:48;19.04;42.35
74416;SHT31;62850;42.428;25.618;2022-10-22T13:32:34;18.98;41.77
74416;SHT31;62850;42.428;25.618;2022-10-22T13:35:01;18.92;41.68
74416;SHT31;62850;42.428;25.618;2022-10-22T13:37:29;18.94;41.27
74416;SHT31;62850;42.428;25.618;2022-10-22T13:39:55;18.98;41.47
74416;SHT31;62850;42.428;25.618;2022-10-22T13:42:20;18.98;41.38
74416;SHT31;62850;42.428;25.618;2022-10-22T13:44:46;18.99;42.20
74416;SHT31;62850;42.428;25.618;2022-10-22T13:47:25;18.95;41.87
74416;SHT31;62850;42.428;25.618;2022-10-22T13:49:53;18.91;42.19
74416;SHT31;62850;42.428;25.618;2022-10-22T13:52:28;18.87;42.33
74416;SHT31;62850;42.428;25.618;2022-10-22T13:54:55;18.81;41.79
74416;SHT31;62850;42.428;25.618;2022-10-22T13:57:21;18.77;41.60
74416;SHT31;62850;42.428;25.618;2022-10-22T13:59:46;18.71;41.90
74416;SHT31;62850;42.428;25.618;2022-10-22T14:02:12;18.60;42.14
74416;SHT31;62850;42.428;25.618;2022-10-22T14:04:39;18.60;42.01
74416;SHT31;62850;42.428;25.618;2022-10-22T14:07:13;18.61;42.24
74416;SHT31;62850;42.428;25.618;2022-10-22T14:09:39;18.57;42.48
74416;SHT31;62850;42.428;25.618;2022-10-22T14:12:13;18.54;41.47
74416;SHT31;62850;42.428;25.618;2022-10-22T14:14:39;18.55;41.93
74416;SHT31;62850;42.428;25.618;2022-10-22T14:17:05;18.54;42.17
74416;SHT31;62850;42.428;25.618;2022-10-22T14:19:30;18.60;42.57
74416;SHT31;62850;42.428;25.618;2022-10-22T14:21:56;18.58;42.65
74416;SHT31;62850;42.428;25.618;2022-10-22T14:24:21;18.60;42.27
74416;SHT31;62850;42.428;25.618;2022-10-22T14:26:47;18.58;42.11
74416;SHT31;62850;42.428;25.618;2022-10-22T14:29:12;18.53;42.26
74416;SHT31;62850;42.428;25.618;2022-10-22T14:31:39;18.55;42.27
74416;SHT31;62850;42.428;25.618;2022-10-22T14:34:05;18.51;42.31
74416;SHT31;62850;42.428;25.618;2022-10-22T14:36:30;18.50;42.01
74416;SHT31;62850;42.428;25.618;2022-10-22T14:38:56;18.51;42.49
74416;SHT31;62850;42.428;25.618;2022-10-22T14:41:23;18.48;42.91
74416;SHT31;62850;42.428;25.618;2022-10-22T14:43:50;18.47;42.79
74416;SHT31;62850;42.428;25.618;2022-10-22T14:46:16;18.46;42.67
74416;SHT31;62850;42.428;25.618;2022-10-22T14:48:42;18.40;42.60
74416;SHT31;62850;42.428;25.618;2022-10-22T14:51:12;18.41;42.71
74416;SHT31;62850;42.428;25.618;2022-10-22T14:53:38;18.37;42.87
74416;SHT31;62850;42.428;25.618;2022-10-22T14:56:04;18.36;42.98
74416;SHT31;62850;42.428;25.618;2022-10-22T14:58:29;18.34;42.94
74416;SHT31;62850;42.428;25.618;2022-10-22T15:00:55;18.26;43.15
74416;SHT31;62850;42.428;25.618;2022-10-22T15:03:20;18.20;43.92
74416;SHT31;62850;42.428;25.618;2022-10-22T15:05:50;17.97;45.28
74416;SHT31;62850;42.428;25.618;2022-10-22T15:08:18;17.92;45.77
74416;SHT31;62850;42.428;25.618;2022-10-22T15:10:44;17.89;45.90
74416;SHT31;62850;42.428;25.618;2022-10-22T15:13:09;17.86;45.90
74416;SHT31;62850;42.428;25.618;2022-10-22T15:15:35;17.75;47.16
74416;SHT31;62850;42.428;25.618;2022-10-22T15:18:00;17.59;47.06
74416;SHT31;62850;42.428;25.618;2022-10-22T15:20:26;17.44;47.55
74416;SHT31;62850;42.428;25.618;2022-10-22T15:22:51;17.34;47.97
74416;SHT31;62850;42.428;25.618;2022-10-22T15:25:17;17.21;48.17
74416;SHT31;62850;42.428;25.618;2022-10-22T15:27:43;17.14;48.52
74416;SHT31;62850;42.428;25.618;2022-10-22T15:30:09;16.86;48.49
74416;SHT31;62850;42.428;25.618;2022-10-22T15:32:35;16.72;49.18
74416;SHT31;62850;42.428;25.618;2022-10-22T15:35:00;16.63;49.13
74416;SHT31;62850;42.428;25.618;2022-10-22T15:37:26;16.47;48.71
74416;SHT31;62850;42.428;25.618;2022-10-22T15:39:51;16.49;49.12
74416;SHT31;62850;42.428;25.618;2022-10-22T15:42:17;16.42;49.53
74416;SHT31;62850;42.428;25.618;2022-10-22T15:44:43;16.29;49.69
74416;SHT31;62850;42.428;25.618;2022-10-22T15:47:09;16.14;49.80
74416;SHT31;62850;42.428;25.618;2022-10-22T15:49:36;16.00;50.24
74416;SHT31;62850;42.428;25.618;2022-10-22T15:52:03;15.97;50.08
74416;SHT31;62850;42.428;25.618;2022-10-22T15:54:29;15.93;50.26
74416;SHT31;62850;42.428;25.618;2022-10-22T15:56:56;15.74;49.68
74416;SHT31;62850;42.428;25.618;2022-10-22T15:59:22;15.66;49.59
74416;SHT31;62850;42.428;25.618;2022-10-22T16:01:48;15.67;49.66
74416;SHT31;62850;42.428;25.618;2022-10-22T16:04:14;15.71;50.13
74416;SHT31;62850;42.428;25.618;2022-10-22T16:06:42;15.79;50.29
74416;SHT31;62850;42.428;25.618;2022-10-22T16:09:10;15.74;50.27
74416;SHT31;62850;42.428;25.618;2022-10-22T16:11:37;15.73;50.16
74416;SHT31;62850;42.428;25.618;2022-10-22T16:14:02;15.73;50.32
74416;SHT31;62850;42.428;25.618;2022-10-22T16:16:30;15.71;50.71
74416;SHT31;62850;42.428;25.618;2022-10-22T16:18:56;15.73;51.00
74416;SHT31;62850;42.428;25.618;2022-10-22T16:21:22;15.70;51.14
74416;SHT31;62850;42.428;25.618;2022-10-22T16:23:48;15.67;51.37
74416;SHT31;62850;42.428;25.618;2022-10-22T16:26:14;15.54;51.55
74416;SHT31;62850;42.428;25.618;2022-10-22T16:28:41;15.47;51.78
74416;SHT31;62850;42.428;25.618;2022-10-22T16:31:09;15.44;51.85
74416;SHT31;62850;42.428;25.618;2022-10-22T16:33:35;15.40;52.05
74416;SHT31;62850;42.428;25.618;2022-10-22T16:36:02;15.38;52.11
74416;SHT31;62850;42.428;25.618;2022-10-22T16:38:28;15.26;52.31
74416;SHT31;62850;42.428;25.618;2022-10-22T16:41:05;15.23;52.42
74416;SHT31;62850;42.428;25.618;2022-10-22T16:43:31;15.22;52.36
74416;SHT31;62850;42.428;25.618;2022-10-22T16:45:56;15.22;52.54
74416;SHT31;62850;42.428;25.618;2022-10-22T16:48:22;15.21;52.50
74416;SHT31;62850;42.428;25.618;2022-10-22T16:50:48;15.15;52.48
74416;SHT31;62850;42.428;25.618;2022-10-22T16:53:13;15.15;52.52
74416;SHT31;62850;42.428;25.618;2022-10-22T16:55:39;15.18;52.91
74416;SHT31;62850;42.428;25.618;2022-10-22T16:58:05;15.09;52.99
74416;SHT31;62850;42.428;25.618;2022-10-22T17:00:31;15.05;53.11
74416;SHT31;62850;42.428;25.618;2022-10-22T17:02:57;15.02;53.18
74416;SHT31;62850;42.428;25.618;2022-10-22T17:05:22;15.03;53.24
74416;SHT31;62850;42.428;25.618;2022-10-22T17:07:48;15.01;53.25
74416;SHT31;62850;42.428;25.618;2022-10-22T17:10:15;14.92;53.33
74416;SHT31;62850;42.428;25.618;2022-10-22T17:12:40;14.91;53.68
74416;SHT31;62850;42.428;25.618;2022-10-22T17:15:06;14.81;53.78
74416;SHT31;62850;42.428;25.618;2022-10-22T17:17:32;14.77;53.86
74416;SHT31;62850;42.428;25.618;2022-10-22T17:19:58;14.78;54.04